createdAt,value
2022-11-27T00:01:32.590Z,3.80
2022-11-27T00:03:59.534Z,3.90
2022-11-27T00:06:28.570Z,3.80
2022-11-27T00:09:00.909Z,3.70
2022-11-27T00:11:29.833Z,4.00
2022-11-27T00:13:56.898Z,3.78
2022-11-27T00:16:25.633Z,4.20
2022-11-27T00:18:53.078Z,3.72
2022-11-27T00:21:29.455Z,4.10
2022-11-27T00:23:58.234Z,3.67
2022-11-27T00:26:26.407Z,3.90
2022-11-27T00:28:53.595Z,3.25
2022-11-27T00:31:23.146Z,3.33
2022-11-27T00:33:49.945Z,3.77
2022-11-27T00:36:16.708Z,3.60
2022-11-27T00:38:43.471Z,3.50
2022-11-27T00:41:14.305Z,4.00
2022-11-27T00:43:44.485Z,3.35
2022-11-27T00:46:16.710Z,3.50
2022-11-27T00:48:44.404Z,3.55
2022-11-27T00:51:14.168Z,3.55
2022-11-27T00:53:41.256Z,3.20
2022-11-27T00:56:08.587Z,3.25
2022-11-27T00:58:35.526Z,3.00
2022-11-27T01:01:05.449Z,3.95
2022-11-27T01:03:33.509Z,3.15
2022-11-27T01:06:05.457Z,3.00
2022-11-27T01:08:33.327Z,3.67
2022-11-27T01:11:00.402Z,2.83
2022-11-27T01:13:31.806Z,3.15
2022-11-27T01:16:10.767Z,3.28
2022-11-27T01:18:39.490Z,3.15
2022-11-27T01:21:07.122Z,3.00
2022-11-27T01:23:34.100Z,2.40
2022-11-27T01:26:02.168Z,3.17
2022-11-27T01:28:28.953Z,3.20
2022-11-27T01:30:55.865Z,3.60
2022-11-27T01:33:22.811Z,3.00
2022-11-27T01:35:56.697Z,3.20
2022-11-27T01:38:24.274Z,3.15
2022-11-27T01:41:00.707Z,3.08
2022-11-27T01:43:48.171Z,3.30
2022-11-27T01:46:43.856Z,3.00
2022-11-27T01:49:10.543Z,2.70
2022-11-27T01:51:40.890Z,3.00
2022-11-27T01:54:10.657Z,2.65
2022-11-27T01:56:40.967Z,2.60
2022-11-27T01:59:08.088Z,2.90
2022-11-27T02:01:34.932Z,2.40
2022-11-27T02:04:02.243Z,2.40
2022-11-27T02:06:29.264Z,2.60
2022-11-27T02:08:56.837Z,2.67
2022-11-27T02:11:36.358Z,2.65
2022-11-27T02:14:18.121Z,2.50
2022-11-27T02:17:01.838Z,2.80
2022-11-27T02:19:40.389Z,3.00
2022-11-27T02:22:27.920Z,2.60
2022-11-27T02:24:54.576Z,2.28
2022-11-27T02:27:46.066Z,2.57
2022-11-27T02:30:13.282Z,2.30
2022-11-27T02:32:59.207Z,2.25
2022-11-27T02:35:41.478Z,2.28
2022-11-27T02:38:17.045Z,1.85
2022-11-27T02:40:58.960Z,2.40
2022-11-27T02:43:36.129Z,2.30
2022-11-27T02:46:05.270Z,2.20
2022-11-27T02:48:36.291Z,2.28
2022-11-27T02:51:04.820Z,1.98
2022-11-27T02:53:37.752Z,2.07
2022-11-27T02:56:08.469Z,2.20
2022-11-27T02:58:37.606Z,2.20
2022-11-27T03:01:06.846Z,2.20
2022-11-27T03:03:40.360Z,2.53
2022-11-27T03:06:11.527Z,1.87
2022-11-27T03:08:57.441Z,2.25
2022-11-27T03:11:24.711Z,1.92
2022-11-27T03:13:55.380Z,2.20
2022-11-27T03:16:25.180Z,1.98
2022-11-27T03:19:06.988Z,2.27
2022-11-27T03:21:43.627Z,1.98
2022-11-27T03:24:11.583Z,2.13
2022-11-27T03:26:39.767Z,2.50
2022-11-27T03:29:10.770Z,2.25
2022-11-27T03:31:38.643Z,2.33
2022-11-27T03:34:05.669Z,2.60
2022-11-27T03:36:32.457Z,2.60
2022-11-27T03:38:59.175Z,2.55
2022-11-27T03:41:40.917Z,2.53
2022-11-27T03:44:31.808Z,2.60
2022-11-27T03:47:10.770Z,2.50
2022-11-27T03:50:03.858Z,2.78
2022-11-27T03:52:35.706Z,3.00
2022-11-27T03:55:27.544Z,2.75
2022-11-27T03:58:08.726Z,2.93
2022-11-27T04:00:40.945Z,2.80
2022-11-27T04:03:11.524Z,3.25
2022-11-27T04:05:38.862Z,2.67
2022-11-27T04:08:05.882Z,2.80
2022-11-27T04:10:32.519Z,2.77
2022-11-27T04:12:59.169Z,3.15
2022-11-27T04:15:25.868Z,2.95
2022-11-27T04:17:52.516Z,3.10
2022-11-27T04:20:19.166Z,3.10
2022-11-27T04:22:45.810Z,2.97
2022-11-27T04:25:12.641Z,2.80
2022-11-27T04:27:39.359Z,2.85
2022-11-27T04:30:06.876Z,2.97
2022-11-27T04:32:33.923Z,3.10
2022-11-27T04:35:00.990Z,2.90
2022-11-27T04:37:27.670Z,2.63
2022-11-27T04:39:54.323Z,2.88
2022-11-27T04:42:20.994Z,2.88
2022-11-27T04:44:47.634Z,2.55
2022-11-27T04:47:14.675Z,2.50
2022-11-27T04:49:41.392Z,2.72
2022-11-27T04:52:08.118Z,2.40
2022-11-27T04:54:34.821Z,2.88
2022-11-27T04:57:01.486Z,2.50
2022-11-27T04:59:28.162Z,2.37
2022-11-27T05:01:54.815Z,2.40
2022-11-27T05:04:22.367Z,2.35
2022-11-27T05:06:49.428Z,2.50
2022-11-27T05:09:18.325Z,2.42
2022-11-27T05:11:45.606Z,2.47
2022-11-27T05:14:15.041Z,2.33
2022-11-27T05:16:49.861Z,2.30
2022-11-27T05:19:18.556Z,2.38
2022-11-27T05:21:46.422Z,2.80
2022-11-27T05:24:14.089Z,2.40
2022-11-27T05:26:41.756Z,2.40
2022-11-27T05:29:09.713Z,2.20
2022-11-27T05:31:36.728Z,2.30
2022-11-27T05:34:04.231Z,2.38
2022-11-27T05:36:31.650Z,2.37
2022-11-27T05:38:58.349Z,2.28
2022-11-27T05:41:25.203Z,2.13
2022-11-27T05:43:51.973Z,2.20
2022-11-27T05:46:21.506Z,2.00
2022-11-27T05:48:49.078Z,2.00
2022-11-27T05:51:16.632Z,2.05
2022-11-27T05:53:43.375Z,2.40
2022-11-27T05:56:13.020Z,2.30
2022-11-27T05:58:40.627Z,2.33
2022-11-27T06:01:08.628Z,2.20
2022-11-27T06:03:39.463Z,1.90
2022-11-27T06:06:07.901Z,2.00
2022-11-27T06:08:36.335Z,1.90
2022-11-27T06:11:14.564Z,2.20
2022-11-27T06:13:41.385Z,1.90
2022-11-27T06:16:13.507Z,2.00
2022-11-27T06:18:40.207Z,2.20
2022-11-27T06:21:13.140Z,1.95
2022-11-27T06:23:41.067Z,1.88
2022-11-27T06:26:11.874Z,2.00
2022-11-27T06:28:38.610Z,2.10
2022-11-27T06:31:13.127Z,1.98
2022-11-27T06:33:42.962Z,1.98
2022-11-27T06:36:09.884Z,1.90
2022-11-27T06:38:37.959Z,2.00
2022-11-27T06:41:07.411Z,1.90
2022-11-27T06:43:34.970Z,2.00
2022-11-27T06:46:03.345Z,1.73
2022-11-27T06:48:30.553Z,2.00
2022-11-27T06:51:05.838Z,1.93
2022-11-27T06:53:35.230Z,1.60
2022-11-27T06:56:13.187Z,1.80
2022-11-27T06:58:40.167Z,1.98
2022-11-27T07:01:09.596Z,2.25
2022-11-27T07:03:36.722Z,5.17
2022-11-27T07:06:05.538Z,2.80
2022-11-27T07:08:32.884Z,2.22
2022-11-27T07:11:09.135Z,2.10
2022-11-27T07:13:35.846Z,2.20
2022-11-27T07:16:05.372Z,2.20
2022-11-27T07:18:36.531Z,2.35
2022-11-27T07:21:03.851Z,2.20
2022-11-27T07:23:30.691Z,2.35
2022-11-27T07:25:58.198Z,2.40
2022-11-27T07:28:25.343Z,2.43
2022-11-27T07:30:56.798Z,2.40
2022-11-27T07:33:24.604Z,2.30
2022-11-27T07:35:58.219Z,2.13
2022-11-27T07:38:24.958Z,2.22
2022-11-27T07:40:53.828Z,2.10
2022-11-27T07:43:20.953Z,2.45
2022-11-27T07:45:47.807Z,2.60
2022-11-27T07:48:14.510Z,2.92
2022-11-27T07:50:41.411Z,2.47
2022-11-27T07:53:08.149Z,2.80
2022-11-27T07:55:37.340Z,2.70
2022-11-27T07:58:03.997Z,2.45
2022-11-27T08:00:30.735Z,2.47
2022-11-27T08:02:58.612Z,2.55
2022-11-27T08:05:25.317Z,2.40
2022-11-27T08:07:52.167Z,2.45
2022-11-27T08:10:19.022Z,2.90
2022-11-27T08:12:45.708Z,2.30
2022-11-27T08:15:14.887Z,2.45
2022-11-27T08:17:41.620Z,2.30
2022-11-27T08:20:08.603Z,2.30
2022-11-27T08:22:35.590Z,2.15
2022-11-27T08:25:02.247Z,2.58
2022-11-27T08:27:32.691Z,2.33
2022-11-27T08:30:00.589Z,2.23
2022-11-27T08:32:27.440Z,2.75
2022-11-27T08:34:54.542Z,2.47
2022-11-27T08:37:22.142Z,3.17
2022-11-27T08:39:48.875Z,2.67
2022-11-27T08:42:16.311Z,2.60
2022-11-27T08:44:43.370Z,2.72
2022-11-27T08:47:10.333Z,2.90
2022-11-27T08:49:40.554Z,3.10
2022-11-27T08:52:11.251Z,2.90
2022-11-27T08:54:38.497Z,2.53
2022-11-27T08:57:05.457Z,2.78
2022-11-27T08:59:32.103Z,3.35
2022-11-27T09:01:58.835Z,3.00
2022-11-27T09:04:25.654Z,2.80
2022-11-27T09:06:57.984Z,2.80
2022-11-27T09:09:25.426Z,2.78
2022-11-27T09:11:54.560Z,3.00
2022-11-27T09:14:21.330Z,2.95
2022-11-27T09:16:48.228Z,2.53
2022-11-27T09:19:15.217Z,2.80
2022-11-27T09:21:43.039Z,2.60
2022-11-27T09:24:10.176Z,3.30
2022-11-27T09:26:36.900Z,2.78
2022-11-27T09:29:04.121Z,2.83
2022-11-27T09:31:30.969Z,3.67
2022-11-27T09:33:58.603Z,2.92
2022-11-27T09:36:26.929Z,2.80
2022-11-27T09:38:54.441Z,2.80
2022-11-27T09:41:38.724Z,2.90
2022-11-27T09:44:30.933Z,3.30
2022-11-27T09:47:01.496Z,2.60
2022-11-27T09:50:01.292Z,3.08
2022-11-27T09:52:35.841Z,2.70
2022-11-27T09:55:26.229Z,2.80
2022-11-27T09:58:02.234Z,3.23
2022-11-27T10:00:29.216Z,2.70
2022-11-27T10:02:56.621Z,3.00
2022-11-27T10:05:26.753Z,2.65
2022-11-27T10:08:23.844Z,2.55
2022-11-27T10:10:58.682Z,2.87
2022-11-27T10:13:47.183Z,3.00
2022-11-27T10:16:47.426Z,2.80
2022-11-27T10:19:26.379Z,3.00
2022-11-27T10:22:21.100Z,2.70
2022-11-27T10:25:03.327Z,2.70
2022-11-27T10:27:57.241Z,2.88
2022-11-27T10:30:24.860Z,3.00
2022-11-27T10:32:56.459Z,2.90
2022-11-27T10:35:30.257Z,3.08
2022-11-27T10:38:22.343Z,2.90
2022-11-27T10:40:57.152Z,2.85
2022-11-27T10:43:25.102Z,2.65
2022-11-27T10:46:02.549Z,2.80
2022-11-27T10:48:29.719Z,3.25
2022-11-27T10:50:57.197Z,3.60
2022-11-27T10:53:29.055Z,2.85
2022-11-27T10:56:15.544Z,3.20
2022-11-27T10:58:52.375Z,2.53
2022-11-27T11:01:20.979Z,2.90
2022-11-27T11:03:47.886Z,2.60
2022-11-27T11:06:26.086Z,3.22
2022-11-27T11:09:15.470Z,3.38
2022-11-27T11:11:42.244Z,3.20
2022-11-27T11:14:20.795Z,2.80
2022-11-27T11:16:47.868Z,2.67
2022-11-27T11:19:31.404Z,3.22
2022-11-27T11:22:00.775Z,3.30
2022-11-27T11:24:29.900Z,3.17
2022-11-27T11:27:27.271Z,3.08
2022-11-27T11:29:59.907Z,3.10
2022-11-27T11:32:40.408Z,3.00
2022-11-27T11:35:32.243Z,3.15
2022-11-27T11:37:59.400Z,3.50
2022-11-27T11:40:34.795Z,3.17
2022-11-27T11:43:09.940Z,3.27
2022-11-27T11:45:46.084Z,3.17
2022-11-27T11:48:27.539Z,3.08
2022-11-27T11:51:26.425Z,2.72
2022-11-27T11:54:33.135Z,3.28
2022-11-27T11:57:02.956Z,3.57
2022-11-27T11:59:48.474Z,3.20
2022-11-27T12:02:34.779Z,3.35
2022-11-27T12:05:22.927Z,3.17
2022-11-27T12:07:52.819Z,2.95
2022-11-27T12:10:25.919Z,3.60
2022-11-27T12:13:04.885Z,3.22
2022-11-27T12:16:04.660Z,3.58
2022-11-27T12:19:07.338Z,3.13
2022-11-27T12:21:39.978Z,3.00
2022-11-27T12:24:26.963Z,3.20
2022-11-27T12:27:02.487Z,3.08
2022-11-27T12:30:02.081Z,2.97
2022-11-27T12:32:34.512Z,3.08
2022-11-27T12:35:32.167Z,3.15
2022-11-27T12:38:11.172Z,2.77
2022-11-27T12:41:03.615Z,3.00
2022-11-27T12:43:41.534Z,3.08
2022-11-27T12:46:16.287Z,3.10
2022-11-27T12:48:50.800Z,3.33
2022-11-27T12:51:39.512Z,3.67
2022-11-27T12:54:15.086Z,3.90
2022-11-27T12:56:53.306Z,4.20
2022-11-27T12:59:22.852Z,3.33
2022-11-27T13:02:02.646Z,3.20
2022-11-27T13:04:43.884Z,3.50
2022-11-27T13:07:24.661Z,3.40
2022-11-27T13:10:18.059Z,3.15
2022-11-27T13:13:11.616Z,3.50
2022-11-27T13:15:46.322Z,2.85
2022-11-27T13:18:22.027Z,3.00
2022-11-27T13:20:52.629Z,3.53
2022-11-27T13:23:20.776Z,3.30
2022-11-27T13:25:52.644Z,3.42
2022-11-27T13:28:44.479Z,3.53
2022-11-27T13:31:33.335Z,3.23
2022-11-27T13:34:04.276Z,2.88
2022-11-27T13:36:44.883Z,3.03
2022-11-27T13:39:42.295Z,3.10
2022-11-27T13:42:12.513Z,3.42
2022-11-27T13:44:43.499Z,3.10
2022-11-27T13:47:17.528Z,3.10
2022-11-27T13:49:46.512Z,3.33
2022-11-27T13:52:18.801Z,3.25
2022-11-27T13:54:55.835Z,3.80
2022-11-27T13:57:24.123Z,4.23
2022-11-27T14:00:08.272Z,3.88
2022-11-27T14:02:42.128Z,3.95
2022-11-27T14:05:09.124Z,3.60
2022-11-27T14:07:45.590Z,3.88
2022-11-27T14:10:17.424Z,3.83
2022-11-27T14:13:02.464Z,3.63
2022-11-27T14:15:31.479Z,3.60
2022-11-27T14:18:13.420Z,4.00
2022-11-27T14:20:56.267Z,4.03
2022-11-27T14:23:48.080Z,4.83
2022-11-27T14:26:15.477Z,3.90
2022-11-27T14:28:50.556Z,3.55
2022-11-27T14:31:23.511Z,3.88
2022-11-27T14:36:37.027Z,4.00
2022-11-27T14:39:04.525Z,3.88
2022-11-27T14:41:31.645Z,3.75
2022-11-27T14:44:03.722Z,3.50
2022-11-27T14:46:33.602Z,3.45
2022-11-27T14:49:00.619Z,3.53
2022-11-27T14:51:31.134Z,3.85
2022-11-27T14:54:01.438Z,4.30
2022-11-27T14:56:37.319Z,4.10
2022-11-27T14:59:04.507Z,4.00
2022-11-27T15:01:34.021Z,4.10
2022-11-27T15:04:06.355Z,4.05
2022-11-27T15:06:46.150Z,3.88
2022-11-27T15:09:31.805Z,4.22
2022-11-27T15:12:15.188Z,4.30
2022-11-27T15:14:55.970Z,4.10
2022-11-27T15:17:28.304Z,4.57
2022-11-27T15:19:56.858Z,4.18
2022-11-27T15:22:24.150Z,4.07
2022-11-27T15:25:05.828Z,4.10
2022-11-27T15:27:44.016Z,4.20
2022-11-27T15:30:19.294Z,3.85
2022-11-27T15:32:51.863Z,4.40
2022-11-27T15:35:35.077Z,4.32
2022-11-27T15:38:09.766Z,4.07
2022-11-27T15:40:39.593Z,4.30
2022-11-27T15:43:15.025Z,4.47
2022-11-27T15:45:44.215Z,4.35
2022-11-27T15:48:17.029Z,4.95
2022-11-27T15:50:48.328Z,4.72
2022-11-27T15:53:18.385Z,4.87
2022-11-27T15:55:45.169Z,4.32
2022-11-27T15:58:11.939Z,4.25
2022-11-27T16:00:39.835Z,4.72
2022-11-27T16:03:06.587Z,4.85
2022-11-27T16:05:33.386Z,5.13
2022-11-27T16:08:00.171Z,4.80
2022-11-27T16:10:26.983Z,5.30
2022-11-27T16:12:55.344Z,5.72
2022-11-27T16:15:23.527Z,4.90
2022-11-27T16:17:51.067Z,5.27
2022-11-27T16:20:17.805Z,5.20
2022-11-27T16:22:44.508Z,5.22
2022-11-27T16:25:11.236Z,5.18
2022-11-27T16:27:37.955Z,5.10
2022-11-27T16:30:05.257Z,5.10
2022-11-27T16:32:32.069Z,5.68
2022-11-27T16:34:58.766Z,6.15
2022-11-27T16:37:25.514Z,5.60
2022-11-27T16:39:52.386Z,5.43
2022-11-27T16:42:19.239Z,5.03
2022-11-27T16:44:45.978Z,5.90
2022-11-27T16:47:12.673Z,5.30
2022-11-27T16:49:39.884Z,5.25
2022-11-27T16:52:06.659Z,5.63
2022-11-27T16:54:33.348Z,5.27
2022-11-27T16:57:00.152Z,5.45
2022-11-27T16:59:26.889Z,6.25
2022-11-27T17:01:53.691Z,5.65
2022-11-27T17:04:21.416Z,5.75
2022-11-27T17:06:49.566Z,5.33
2022-11-27T17:09:17.400Z,6.15
2022-11-27T17:11:48.907Z,6.10
2022-11-27T17:14:16.331Z,5.80
2022-11-27T17:16:43.261Z,6.10
2022-11-27T17:19:14.783Z,5.70
2022-11-27T17:21:42.154Z,6.38
2022-11-27T17:24:15.489Z,5.78
2022-11-27T17:26:43.557Z,6.45
2022-11-27T17:29:11.724Z,6.22
2022-11-27T17:31:38.833Z,6.53
2022-11-27T17:34:06.246Z,7.10
2022-11-27T17:36:37.089Z,8.38
2022-11-27T17:39:05.258Z,6.50
2022-11-27T17:41:33.043Z,6.80
2022-11-27T17:43:59.847Z,6.70
2022-11-27T17:46:28.467Z,5.95
2022-11-27T17:48:57.924Z,6.32
2022-11-27T17:51:25.663Z,6.40
2022-11-27T17:53:52.535Z,5.90
2022-11-27T17:56:20.647Z,6.03
2022-11-27T17:58:47.590Z,6.05
2022-11-27T18:01:23.038Z,6.13
2022-11-27T18:03:50.018Z,5.65
2022-11-27T18:06:19.051Z,5.85
2022-11-27T18:08:47.468Z,6.80
2022-11-27T18:11:17.709Z,6.93
2022-11-27T18:13:44.527Z,6.03
2022-11-27T18:16:13.656Z,6.78
2022-11-27T18:18:41.819Z,6.25
2022-11-27T18:21:15.390Z,6.70
2022-11-27T18:24:14.454Z,6.38
2022-11-27T18:26:52.581Z,5.93
2022-11-27T18:29:18.573Z,6.50
2022-11-27T18:31:46.861Z,6.47
2022-11-27T18:34:13.764Z,6.23
2022-11-27T18:36:40.496Z,6.28
2022-11-27T18:39:07.259Z,6.72
2022-11-27T18:41:34.772Z,6.40
2022-11-27T18:44:01.574Z,6.00
2022-11-27T18:46:28.583Z,6.23
2022-11-27T18:48:55.531Z,6.53
2022-11-27T18:51:24.399Z,6.18
2022-11-27T18:53:52.161Z,6.40
2022-11-27T18:56:22.071Z,6.05
2022-11-27T18:58:50.683Z,6.00
2022-11-27T19:01:22.190Z,6.15
2022-11-27T19:03:49.271Z,6.43
2022-11-27T19:06:18.082Z,6.38
2022-11-27T19:08:45.273Z,6.03
2022-11-27T19:11:14.723Z,6.47
2022-11-27T19:13:42.440Z,6.18
2022-11-27T19:16:12.936Z,6.22
2022-11-27T19:18:40.051Z,6.03
2022-11-27T19:21:12.126Z,6.63
2022-11-27T19:23:39.810Z,6.30
2022-11-27T19:26:08.828Z,6.10
2022-11-27T19:28:36.016Z,6.00
2022-11-27T19:31:07.875Z,6.57
2022-11-27T19:33:36.591Z,6.18
2022-11-27T19:36:09.759Z,5.67
2022-11-27T19:38:37.602Z,6.13
2022-11-27T19:41:09.011Z,5.60
2022-11-27T19:43:35.678Z,6.72
2022-11-27T19:46:02.611Z,6.80
2022-11-27T19:48:29.306Z,6.93
2022-11-27T19:51:01.496Z,6.40
2022-11-27T19:53:28.147Z,6.63
2022-11-27T19:55:55.738Z,6.85
2022-11-27T19:58:22.490Z,8.00
2022-11-27T20:00:49.335Z,6.43
2022-11-27T20:03:16.055Z,6.88
2022-11-27T20:05:42.753Z,5.85
2022-11-27T20:08:09.459Z,6.18
2022-11-27T20:10:36.331Z,6.47
2022-11-27T20:13:03.557Z,6.17
2022-11-27T20:15:30.411Z,6.55
2022-11-27T20:17:57.163Z,6.53
2022-11-27T20:20:23.821Z,5.80
2022-11-27T20:22:50.586Z,6.35
2022-11-27T20:25:20.313Z,5.63
2022-11-27T20:27:47.457Z,5.95
2022-11-27T20:30:14.298Z,5.78
2022-11-27T20:32:41.030Z,6.20
2022-11-27T20:35:08.050Z,6.32
2022-11-27T20:37:35.015Z,6.17
2022-11-27T20:40:01.814Z,6.25
2022-11-27T20:42:28.468Z,6.88
2022-11-27T20:44:55.262Z,6.20
2022-11-27T20:47:21.972Z,6.40
2022-11-27T20:49:48.660Z,5.97
2022-11-27T20:52:15.409Z,6.10
2022-11-27T20:54:42.204Z,6.40
2022-11-27T20:57:14.099Z,6.68
2022-11-27T20:59:41.865Z,7.13
2022-11-27T21:02:12.912Z,6.03
2022-11-27T21:04:39.764Z,6.05
2022-11-27T21:07:06.614Z,6.97
2022-11-27T21:09:34.172Z,6.60
2022-11-27T21:12:01.170Z,6.35
2022-11-27T21:14:28.091Z,6.60
2022-11-27T21:16:55.748Z,6.47
2022-11-27T21:19:26.182Z,6.70
2022-11-27T21:21:55.056Z,7.10
2022-11-27T21:24:23.302Z,6.93
2022-11-27T21:26:50.117Z,6.20
2022-11-27T21:29:17.486Z,7.03
2022-11-27T21:31:47.202Z,7.07
2022-11-27T21:34:15.006Z,6.85
2022-11-27T21:36:42.062Z,6.80
2022-11-27T21:39:11.351Z,7.23
2022-11-27T21:41:38.296Z,6.50
2022-11-27T21:44:05.717Z,6.85
2022-11-27T21:46:32.780Z,10.13
2022-11-27T21:49:01.096Z,7.60
2022-11-27T21:51:28.915Z,7.20
2022-11-27T21:53:57.240Z,7.13
2022-11-27T21:56:27.734Z,7.60
2022-11-27T21:58:54.646Z,8.45
2022-11-27T22:01:24.441Z,7.28
2022-11-27T22:03:54.038Z,8.03
2022-11-27T22:06:21.871Z,7.15
2022-11-27T22:08:50.525Z,7.10
2022-11-27T22:11:20.934Z,6.47
2022-11-27T22:13:47.832Z,7.40
2022-11-27T22:16:17.965Z,6.90
2022-11-27T22:18:45.311Z,6.70
2022-11-27T22:21:13.276Z,6.78
2022-11-27T22:23:40.985Z,7.88
2022-11-27T22:26:18.662Z,7.13
2022-11-27T22:28:45.475Z,6.70
2022-11-27T22:31:27.332Z,7.57
2022-11-27T22:33:54.139Z,6.95
2022-11-27T22:36:23.846Z,7.35
2022-11-27T22:38:53.798Z,7.47
2022-11-27T22:41:22.534Z,6.53
2022-11-27T22:43:49.881Z,7.32
2022-11-27T22:54:38.300Z,7.07
2022-11-27T22:57:18.760Z,6.78
2022-11-27T23:00:10.228Z,6.25
2022-11-27T23:02:43.993Z,6.25
2022-11-27T23:05:11.050Z,6.80
2022-11-27T23:07:38.047Z,6.57
2022-11-27T23:10:05.270Z,6.35
2022-11-27T23:12:35.171Z,6.53
2022-11-27T23:15:02.056Z,6.82
2022-11-27T23:28:36.068Z,6.53
2022-11-27T23:35:00.924Z,6.63
2022-11-27T23:51:24.664Z,6.25
2022-11-27T23:54:12.119Z,6.20
2022-11-27T23:57:26.730Z,6.53
